sensor_id;sensor_type;location;lat;lon;timestamp;P1;durP1;ratioP1;P2;durP2;ratioP2
16468;SDS011;8345;50.902;6.956;2023-10-08T00:01:07;5.27;;;4.20;;
16468;SDS011;8345;50.902;6.956;2023-10-08T00:03:37;6.50;;;4.10;;
16468;SDS011;8345;50.902;6.956;2023-10-08T00:06:06;4.40;;;3.80;;
16468;SDS011;8345;50.902;6.956;2023-10-08T00:08:39;6.30;;;3.87;;
16468;SDS011;8345;50.902;6.956;2023-10-08T00:11:06;4.07;;;3.50;;
16468;SDS011;8345;50.902;6.956;2023-10-08T00:13:35;7.30;;;4.20;;
16468;SDS011;8345;50.902;6.956;2023-10-08T00:16:05;6.13;;;4.20;;
16468;SDS011;8345;50.902;6.956;2023-10-08T00:18:34;5.47;;;3.80;;
16468;SDS011;8345;50.902;6.956;2023-10-08T00:21:02;6.67;;;4.10;;
16468;SDS011;8345;50.902;6.956;2023-10-08T00:23:43;5.53;;;4.43;;
16468;SDS011;8345;50.902;6.956;2023-10-08T00:26:17;8.17;;;4.70;;
16468;SDS011;8345;50.902;6.956;2023-10-08T00:28:52;4.90;;;4.10;;
16468;SDS011;8345;50.902;6.956;2023-10-08T00:31:21;5.93;;;4.00;;
16468;SDS011;8345;50.902;6.956;2023-10-08T00:33:51;5.60;;;4.03;;
16468;SDS011;8345;50.902;6.956;2023-10-08T00:36:18;5.47;;;3.83;;
16468;SDS011;8345;50.902;6.956;2023-10-08T00:38:46;5.63;;;4.20;;
16468;SDS011;8345;50.902;6.956;2023-10-08T00:41:15;7.53;;;4.50;;
16468;SDS011;8345;50.902;6.956;2023-10-08T00:43:46;5.57;;;3.53;;
16468;SDS011;8345;50.902;6.956;2023-10-08T00:46:16;6.90;;;4.33;;
16468;SDS011;8345;50.902;6.956;2023-10-08T00:48:46;5.33;;;3.90;;
16468;SDS011;8345;50.902;6.956;2023-10-08T00:51:14;7.40;;;4.07;;
16468;SDS011;8345;50.902;6.956;2023-10-08T00:53:54;7.87;;;4.13;;
16468;SDS011;8345;50.902;6.956;2023-10-08T00:56:25;6.03;;;4.43;;
16468;SDS011;8345;50.902;6.956;2023-10-08T00:59:10;5.97;;;4.23;;
16468;SDS011;8345;50.902;6.956;2023-10-08T01:01:40;7.00;;;4.10;;
16468;SDS011;8345;50.902;6.956;2023-10-08T01:04:14;7.67;;;4.17;;
16468;SDS011;8345;50.902;6.956;2023-10-08T01:06:42;7.60;;;3.83;;
16468;SDS011;8345;50.902;6.956;2023-10-08T01:09:10;7.13;;;4.10;;
16468;SDS011;8345;50.902;6.956;2023-10-08T01:11:43;8.33;;;6.07;;
16468;SDS011;8345;50.902;6.956;2023-10-08T01:14:15;6.23;;;3.77;;
16468;SDS011;8345;50.902;6.956;2023-10-08T01:16:43;6.97;;;4.27;;
16468;SDS011;8345;50.902;6.956;2023-10-08T01:19:12;6.97;;;3.60;;
16468;SDS011;8345;50.902;6.956;2023-10-08T01:21:45;4.23;;;3.47;;
16468;SDS011;8345;50.902;6.956;2023-10-08T01:24:14;7.13;;;3.90;;
16468;SDS011;8345;50.902;6.956;2023-10-08T01:26:43;6.90;;;4.10;;
16468;SDS011;8345;50.902;6.956;2023-10-08T01:29:10;5.23;;;4.13;;
16468;SDS011;8345;50.902;6.956;2023-10-08T01:31:44;5.47;;;4.30;;
16468;SDS011;8345;50.902;6.956;2023-10-08T01:34:11;7.07;;;4.20;;
16468;SDS011;8345;50.902;6.956;2023-10-08T01:36:42;5.13;;;4.03;;
16468;SDS011;8345;50.902;6.956;2023-10-08T01:39:10;5.93;;;3.93;;
16468;SDS011;8345;50.902;6.956;2023-10-08T01:41:43;7.13;;;5.97;;
16468;SDS011;8345;50.902;6.956;2023-10-08T01:44:11;8.67;;;4.30;;
16468;SDS011;8345;50.902;6.956;2023-10-08T01:46:39;7.63;;;5.30;;
16468;SDS011;8345;50.902;6.956;2023-10-08T01:49:06;6.27;;;4.10;;
16468;SDS011;8345;50.902;6.956;2023-10-08T01:51:39;7.53;;;4.13;;
16468;SDS011;8345;50.902;6.956;2023-10-08T01:54:11;5.63;;;4.00;;
16468;SDS011;8345;50.902;6.956;2023-10-08T01:56:41;7.07;;;4.20;;
16468;SDS011;8345;50.902;6.956;2023-10-08T01:59:10;7.67;;;4.17;;
16468;SDS011;8345;50.902;6.956;2023-10-08T02:01:39;8.50;;;3.87;;
16468;SDS011;8345;50.902;6.956;2023-10-08T02:04:06;6.33;;;4.13;;
16468;SDS011;8345;50.902;6.956;2023-10-08T02:06:34;6.43;;;4.13;;
16468;SDS011;8345;50.902;6.956;2023-10-08T02:09:02;7.07;;;4.13;;
16468;SDS011;8345;50.902;6.956;2023-10-08T02:11:40;5.90;;;4.07;;
16468;SDS011;8345;50.902;6.956;2023-10-08T02:14:09;8.00;;;3.87;;
16468;SDS011;8345;50.902;6.956;2023-10-08T02:16:40;5.57;;;4.27;;
16468;SDS011;8345;50.902;6.956;2023-10-08T02:19:07;6.87;;;3.73;;
16468;SDS011;8345;50.902;6.956;2023-10-08T02:21:35;7.07;;;3.67;;
16468;SDS011;8345;50.902;6.956;2023-10-08T02:24:05;9.77;;;4.50;;
16468;SDS011;8345;50.902;6.956;2023-10-08T02:26:33;8.03;;;4.43;;
16468;SDS011;8345;50.902;6.956;2023-10-08T02:29:00;6.87;;;4.00;;
16468;SDS011;8345;50.902;6.956;2023-10-08T02:31:32;4.67;;;3.80;;
16468;SDS011;8345;50.902;6.956;2023-10-08T02:33:59;6.87;;;4.50;;
16468;SDS011;8345;50.902;6.956;2023-10-08T02:36:27;6.63;;;3.93;;
16468;SDS011;8345;50.902;6.956;2023-10-08T02:38:54;5.27;;;4.03;;
16468;SDS011;8345;50.902;6.956;2023-10-08T02:41:21;7.77;;;4.20;;
16468;SDS011;8345;50.902;6.956;2023-10-08T02:43:49;6.13;;;4.30;;
16468;SDS011;8345;50.902;6.956;2023-10-08T02:46:17;4.47;;;3.47;;
16468;SDS011;8345;50.902;6.956;2023-10-08T02:48:46;5.03;;;4.10;;
16468;SDS011;8345;50.902;6.956;2023-10-08T02:51:13;6.37;;;4.27;;
16468;SDS011;8345;50.902;6.956;2023-10-08T02:53:40;7.33;;;4.17;;
16468;SDS011;8345;50.902;6.956;2023-10-08T02:56:09;5.40;;;4.30;;
16468;SDS011;8345;50.902;6.956;2023-10-08T02:58:39;6.00;;;4.00;;
16468;SDS011;8345;50.902;6.956;2023-10-08T03:01:08;6.93;;;4.30;;
16468;SDS011;8345;50.902;6.956;2023-10-08T03:03:38;5.50;;;4.50;;
16468;SDS011;8345;50.902;6.956;2023-10-08T03:06:07;6.13;;;4.40;;
16468;SDS011;8345;50.902;6.956;2023-10-08T03:08:37;4.63;;;3.80;;
16468;SDS011;8345;50.902;6.956;2023-10-08T03:11:08;7.87;;;6.07;;
16468;SDS011;8345;50.902;6.956;2023-10-08T03:13:42;5.17;;;4.13;;
16468;SDS011;8345;50.902;6.956;2023-10-08T03:16:11;5.97;;;4.27;;
16468;SDS011;8345;50.902;6.956;2023-10-08T03:18:40;8.60;;;4.87;;
16468;SDS011;8345;50.902;6.956;2023-10-08T03:21:11;8.77;;;4.63;;
16468;SDS011;8345;50.902;6.956;2023-10-08T03:24:07;7.47;;;3.80;;
16468;SDS011;8345;50.902;6.956;2023-10-08T03:26:54;7.80;;;4.03;;
16468;SDS011;8345;50.902;6.956;2023-10-08T03:29:31;6.73;;;4.23;;
16468;SDS011;8345;50.902;6.956;2023-10-08T03:31:58;6.07;;;4.43;;
16468;SDS011;8345;50.902;6.956;2023-10-08T03:34:31;7.40;;;4.60;;
16468;SDS011;8345;50.902;6.956;2023-10-08T03:37:00;6.97;;;4.43;;
16468;SDS011;8345;50.902;6.956;2023-10-08T03:39:31;6.60;;;4.40;;
16468;SDS011;8345;50.902;6.956;2023-10-08T03:42:19;6.40;;;3.83;;
16468;SDS011;8345;50.902;6.956;2023-10-08T03:44:47;5.40;;;4.10;;
16468;SDS011;8345;50.902;6.956;2023-10-08T03:47:17;6.47;;;4.67;;
16468;SDS011;8345;50.902;6.956;2023-10-08T03:49:47;6.47;;;4.20;;
16468;SDS011;8345;50.902;6.956;2023-10-08T03:52:17;7.20;;;4.40;;
16468;SDS011;8345;50.902;6.956;2023-10-08T03:54:48;4.90;;;4.23;;
16468;SDS011;8345;50.902;6.956;2023-10-08T03:57:29;7.77;;;4.23;;
16468;SDS011;8345;50.902;6.956;2023-10-08T04:00:07;8.70;;;4.67;;
16468;SDS011;8345;50.902;6.956;2023-10-08T04:02:38;9.37;;;4.30;;
16468;SDS011;8345;50.902;6.956;2023-10-08T04:05:06;6.57;;;4.27;;
16468;SDS011;8345;50.902;6.956;2023-10-08T04:07:46;6.50;;;4.30;;
16468;SDS011;8345;50.902;6.956;2023-10-08T04:10:42;6.47;;;4.00;;
16468;SDS011;8345;50.902;6.956;2023-10-08T04:13:29;6.17;;;4.23;;
16468;SDS011;8345;50.902;6.956;2023-10-08T04:15:56;5.87;;;4.37;;
16468;SDS011;8345;50.902;6.956;2023-10-08T04:18:23;6.53;;;4.60;;
16468;SDS011;8345;50.902;6.956;2023-10-08T04:20:51;6.20;;;4.07;;
16468;SDS011;8345;50.902;6.956;2023-10-08T04:23:31;7.97;;;4.23;;
16468;SDS011;8345;50.902;6.956;2023-10-08T04:25:58;6.60;;;4.03;;
16468;SDS011;8345;50.902;6.956;2023-10-08T04:28:25;8.37;;;4.43;;
16468;SDS011;8345;50.902;6.956;2023-10-08T04:30:59;8.80;;;4.63;;
16468;SDS011;8345;50.902;6.956;2023-10-08T04:33:41;7.50;;;4.77;;
16468;SDS011;8345;50.902;6.956;2023-10-08T04:36:08;7.67;;;4.53;;
16468;SDS011;8345;50.902;6.956;2023-10-08T04:38:36;5.43;;;4.13;;
16468;SDS011;8345;50.902;6.956;2023-10-08T04:41:05;6.37;;;4.43;;
16468;SDS011;8345;50.902;6.956;2023-10-08T04:43:34;7.63;;;4.80;;
16468;SDS011;8345;50.902;6.956;2023-10-08T04:46:04;8.53;;;5.80;;
16468;SDS011;8345;50.902;6.956;2023-10-08T04:48:44;9.93;;;5.37;;
16468;SDS011;8345;50.902;6.956;2023-10-08T04:51:11;5.20;;;4.40;;
16468;SDS011;8345;50.902;6.956;2023-10-08T04:53:40;10.87;;;4.90;;
16468;SDS011;8345;50.902;6.956;2023-10-08T04:56:10;6.07;;;4.50;;
16468;SDS011;8345;50.902;6.956;2023-10-08T04:58:42;6.00;;;4.83;;
16468;SDS011;8345;50.902;6.956;2023-10-08T05:01:11;6.83;;;4.33;;
16468;SDS011;8345;50.902;6.956;2023-10-08T05:03:46;10.33;;;4.03;;
16468;SDS011;8345;50.902;6.956;2023-10-08T05:06:32;7.23;;;5.00;;
16468;SDS011;8345;50.902;6.956;2023-10-08T05:09:17;8.30;;;4.83;;
16468;SDS011;8345;50.902;6.956;2023-10-08T05:12:04;6.30;;;4.50;;
16468;SDS011;8345;50.902;6.956;2023-10-08T05:14:53;7.33;;;4.57;;
16468;SDS011;8345;50.902;6.956;2023-10-08T05:17:42;6.90;;;4.97;;
16468;SDS011;8345;50.902;6.956;2023-10-08T05:20:21;6.90;;;4.53;;
16468;SDS011;8345;50.902;6.956;2023-10-08T05:23:06;6.23;;;4.30;;
16468;SDS011;8345;50.902;6.956;2023-10-08T05:25:46;8.27;;;4.67;;
16468;SDS011;8345;50.902;6.956;2023-10-08T05:28:23;8.80;;;4.70;;
16468;SDS011;8345;50.902;6.956;2023-10-08T05:30:50;9.30;;;5.43;;
16468;SDS011;8345;50.902;6.956;2023-10-08T05:33:20;5.57;;;4.50;;
16468;SDS011;8345;50.902;6.956;2023-10-08T05:35:50;8.30;;;5.03;;
16468;SDS011;8345;50.902;6.956;2023-10-08T05:38:27;6.53;;;4.73;;
16468;SDS011;8345;50.902;6.956;2023-10-08T05:41:10;6.50;;;4.10;;
16468;SDS011;8345;50.902;6.956;2023-10-08T05:43:53;7.20;;;4.80;;
16468;SDS011;8345;50.902;6.956;2023-10-08T05:46:38;8.03;;;4.87;;
16468;SDS011;8345;50.902;6.956;2023-10-08T05:49:12;6.03;;;4.10;;
16468;SDS011;8345;50.902;6.956;2023-10-08T05:51:57;8.20;;;4.67;;
16468;SDS011;8345;50.902;6.956;2023-10-08T05:54:38;5.67;;;4.43;;
16468;SDS011;8345;50.902;6.956;2023-10-08T05:57:34;7.43;;;5.17;;
16468;SDS011;8345;50.902;6.956;2023-10-08T06:00:04;10.93;;;5.17;;
16468;SDS011;8345;50.902;6.956;2023-10-08T06:03:07;6.93;;;4.57;;
16468;SDS011;8345;50.902;6.956;2023-10-08T06:05:56;8.70;;;4.83;;
16468;SDS011;8345;50.902;6.956;2023-10-08T06:08:47;8.57;;;4.90;;
16468;SDS011;8345;50.902;6.956;2023-10-08T06:11:15;6.40;;;4.30;;
16468;SDS011;8345;50.902;6.956;2023-10-08T06:13:54;8.60;;;4.97;;
16468;SDS011;8345;50.902;6.956;2023-10-08T06:16:25;6.13;;;4.57;;
16468;SDS011;8345;50.902;6.956;2023-10-08T06:19:06;7.50;;;4.97;;
16468;SDS011;8345;50.902;6.956;2023-10-08T06:21:34;6.83;;;4.90;;
16468;SDS011;8345;50.902;6.956;2023-10-08T06:24:03;6.67;;;4.70;;
16468;SDS011;8345;50.902;6.956;2023-10-08T06:26:34;5.67;;;4.47;;
16468;SDS011;8345;50.902;6.956;2023-10-08T06:29:05;6.10;;;4.70;;
16468;SDS011;8345;50.902;6.956;2023-10-08T06:31:43;8.07;;;4.67;;
16468;SDS011;8345;50.902;6.956;2023-10-08T06:34:15;8.50;;;4.63;;
16468;SDS011;8345;50.902;6.956;2023-10-08T06:36:46;7.43;;;5.40;;
16468;SDS011;8345;50.902;6.956;2023-10-08T06:39:13;7.57;;;5.90;;
16468;SDS011;8345;50.902;6.956;2023-10-08T06:41:44;6.43;;;4.83;;
16468;SDS011;8345;50.902;6.956;2023-10-08T06:44:13;6.13;;;4.73;;
16468;SDS011;8345;50.902;6.956;2023-10-08T06:46:41;6.00;;;4.63;;
16468;SDS011;8345;50.902;6.956;2023-10-08T06:49:08;7.17;;;4.87;;
16468;SDS011;8345;50.902;6.956;2023-10-08T06:51:38;6.07;;;4.97;;
16468;SDS011;8345;50.902;6.956;2023-10-08T06:54:07;6.70;;;4.80;;
16468;SDS011;8345;50.902;6.956;2023-10-08T06:56:38;7.87;;;4.30;;
16468;SDS011;8345;50.902;6.956;2023-10-08T06:59:11;5.87;;;4.60;;
16468;SDS011;8345;50.902;6.956;2023-10-08T07:01:39;6.27;;;4.83;;
16468;SDS011;8345;50.902;6.956;2023-10-08T07:04:11;6.53;;;4.27;;
16468;SDS011;8345;50.902;6.956;2023-10-08T07:06:38;6.90;;;4.50;;
16468;SDS011;8345;50.902;6.956;2023-10-08T07:09:05;8.17;;;4.77;;
16468;SDS011;8345;50.902;6.956;2023-10-08T07:11:48;7.17;;;4.63;;
16468;SDS011;8345;50.902;6.956;2023-10-08T07:14:19;7.10;;;4.90;;
16468;SDS011;8345;50.902;6.956;2023-10-08T07:16:48;7.63;;;4.97;;
16468;SDS011;8345;50.902;6.956;2023-10-08T07:19:17;11.07;;;5.20;;
16468;SDS011;8345;50.902;6.956;2023-10-08T07:21:45;6.80;;;4.73;;
16468;SDS011;8345;50.902;6.956;2023-10-08T07:24:13;9.13;;;4.50;;
16468;SDS011;8345;50.902;6.956;2023-10-08T07:26:42;7.03;;;4.37;;
16468;SDS011;8345;50.902;6.956;2023-10-08T07:29:13;38.97;;;34.07;;
16468;SDS011;8345;50.902;6.956;2023-10-08T07:31:42;6.40;;;4.87;;
16468;SDS011;8345;50.902;6.956;2023-10-08T07:34:15;10.60;;;6.93;;
16468;SDS011;8345;50.902;6.956;2023-10-08T07:36:43;10.27;;;5.63;;
16468;SDS011;8345;50.902;6.956;2023-10-08T07:39:12;7.40;;;5.20;;
16468;SDS011;8345;50.902;6.956;2023-10-08T07:41:50;9.13;;;5.90;;
16468;SDS011;8345;50.902;6.956;2023-10-08T07:44:19;7.03;;;4.60;;
16468;SDS011;8345;50.902;6.956;2023-10-08T07:46:46;7.53;;;4.90;;
16468;SDS011;8345;50.902;6.956;2023-10-08T07:49:15;6.37;;;4.90;;
16468;SDS011;8345;50.902;6.956;2023-10-08T07:51:42;9.30;;;4.70;;
16468;SDS011;8345;50.902;6.956;2023-10-08T07:54:16;7.13;;;4.57;;
16468;SDS011;8345;50.902;6.956;2023-10-08T07:56:44;8.57;;;4.83;;
16468;SDS011;8345;50.902;6.956;2023-10-08T07:59:11;8.47;;;5.07;;
16468;SDS011;8345;50.902;6.956;2023-10-08T08:01:40;6.23;;;4.97;;
16468;SDS011;8345;50.902;6.956;2023-10-08T08:04:08;10.00;;;5.50;;
16468;SDS011;8345;50.902;6.956;2023-10-08T08:06:37;8.30;;;5.43;;
16468;SDS011;8345;50.902;6.956;2023-10-08T08:09:04;10.37;;;4.63;;
16468;SDS011;8345;50.902;6.956;2023-10-08T08:11:42;8.53;;;5.73;;
16468;SDS011;8345;50.902;6.956;2023-10-08T08:14:11;7.13;;;4.60;;
16468;SDS011;8345;50.902;6.956;2023-10-08T08:16:41;9.17;;;5.10;;
16468;SDS011;8345;50.902;6.956;2023-10-08T08:19:11;9.63;;;5.00;;
16468;SDS011;8345;50.902;6.956;2023-10-08T08:21:42;7.20;;;4.97;;
16468;SDS011;8345;50.902;6.956;2023-10-08T08:24:10;8.77;;;5.20;;
16468;SDS011;8345;50.902;6.956;2023-10-08T08:26:38;7.07;;;4.97;;
16468;SDS011;8345;50.902;6.956;2023-10-08T08:29:09;8.00;;;5.40;;
16468;SDS011;8345;50.902;6.956;2023-10-08T08:31:40;8.77;;;5.20;;
16468;SDS011;8345;50.902;6.956;2023-10-08T08:34:11;9.23;;;5.30;;
16468;SDS011;8345;50.902;6.956;2023-10-08T08:36:46;8.23;;;5.13;;
16468;SDS011;8345;50.902;6.956;2023-10-08T08:39:14;8.90;;;5.37;;
16468;SDS011;8345;50.902;6.956;2023-10-08T08:41:54;12.40;;;5.73;;
16468;SDS011;8345;50.902;6.956;2023-10-08T08:44:25;9.80;;;5.50;;
16468;SDS011;8345;50.902;6.956;2023-10-08T08:46:54;10.17;;;5.70;;
16468;SDS011;8345;50.902;6.956;2023-10-08T08:49:23;8.03;;;5.70;;
16468;SDS011;8345;50.902;6.956;2023-10-08T08:51:52;10.83;;;5.47;;
16468;SDS011;8345;50.902;6.956;2023-10-08T08:54:20;7.97;;;5.20;;
16468;SDS011;8345;50.902;6.956;2023-10-08T08:56:49;9.27;;;5.90;;
16468;SDS011;8345;50.902;6.956;2023-10-08T08:59:17;9.30;;;5.40;;
16468;SDS011;8345;50.902;6.956;2023-10-08T09:01:45;9.77;;;5.73;;
16468;SDS011;8345;50.902;6.956;2023-10-08T09:04:16;7.77;;;5.40;;
16468;SDS011;8345;50.902;6.956;2023-10-08T09:06:43;10.37;;;5.57;;
16468;SDS011;8345;50.902;6.956;2023-10-08T09:09:12;10.40;;;6.10;;
16468;SDS011;8345;50.902;6.956;2023-10-08T09:11:47;11.10;;;6.40;;
16468;SDS011;8345;50.902;6.956;2023-10-08T09:14:17;10.53;;;6.60;;
16468;SDS011;8345;50.902;6.956;2023-10-08T09:16:44;10.27;;;6.10;;
16468;SDS011;8345;50.902;6.956;2023-10-08T09:19:12;10.07;;;6.07;;
16468;SDS011;8345;50.902;6.956;2023-10-08T09:21:43;9.83;;;5.93;;
16468;SDS011;8345;50.902;6.956;2023-10-08T09:24:12;10.90;;;6.17;;
16468;SDS011;8345;50.902;6.956;2023-10-08T09:26:40;10.40;;;6.57;;
16468;SDS011;8345;50.902;6.956;2023-10-08T09:29:07;9.53;;;6.47;;
16468;SDS011;8345;50.902;6.956;2023-10-08T09:31:37;11.43;;;6.40;;
16468;SDS011;8345;50.902;6.956;2023-10-08T09:34:04;13.87;;;7.03;;
16468;SDS011;8345;50.902;6.956;2023-10-08T09:36:31;12.07;;;7.10;;
16468;SDS011;8345;50.902;6.956;2023-10-08T09:39:00;12.50;;;6.90;;
16468;SDS011;8345;50.902;6.956;2023-10-08T09:41:31;10.13;;;6.40;;
16468;SDS011;8345;50.902;6.956;2023-10-08T09:43:58;11.40;;;7.27;;
16468;SDS011;8345;50.902;6.956;2023-10-08T09:46:28;14.77;;;6.97;;
16468;SDS011;8345;50.902;6.956;2023-10-08T09:48:57;15.03;;;7.10;;
16468;SDS011;8345;50.902;6.956;2023-10-08T09:51:26;11.17;;;6.40;;
16468;SDS011;8345;50.902;6.956;2023-10-08T09:54:00;11.37;;;6.50;;
16468;SDS011;8345;50.902;6.956;2023-10-08T09:56:31;12.47;;;7.20;;
16468;SDS011;8345;50.902;6.956;2023-10-08T09:58:59;12.50;;;6.93;;
16468;SDS011;8345;50.902;6.956;2023-10-08T10:01:27;12.67;;;6.53;;
16468;SDS011;8345;50.902;6.956;2023-10-08T10:03:57;11.23;;;6.87;;
16468;SDS011;8345;50.902;6.956;2023-10-08T10:06:25;12.27;;;6.73;;
16468;SDS011;8345;50.902;6.956;2023-10-08T10:08:53;14.77;;;7.73;;
16468;SDS011;8345;50.902;6.956;2023-10-08T10:11:25;13.47;;;7.60;;
16468;SDS011;8345;50.902;6.956;2023-10-08T10:13:59;13.70;;;7.87;;
16468;SDS011;8345;50.902;6.956;2023-10-08T10:16:26;15.77;;;8.67;;
16468;SDS011;8345;50.902;6.956;2023-10-08T10:18:54;16.60;;;8.33;;
16468;SDS011;8345;50.902;6.956;2023-10-08T10:21:28;16.43;;;8.63;;
16468;SDS011;8345;50.902;6.956;2023-10-08T10:23:56;13.30;;;7.43;;
16468;SDS011;8345;50.902;6.956;2023-10-08T10:26:25;13.00;;;7.27;;
16468;SDS011;8345;50.902;6.956;2023-10-08T10:31:42;14.03;;;7.80;;
16468;SDS011;8345;50.902;6.956;2023-10-08T10:34:11;12.83;;;7.33;;
16468;SDS011;8345;50.902;6.956;2023-10-08T10:36:41;15.80;;;8.17;;
16468;SDS011;8345;50.902;6.956;2023-10-08T10:39:09;15.70;;;8.00;;
16468;SDS011;8345;50.902;6.956;2023-10-08T10:41:42;19.63;;;8.23;;
16468;SDS011;8345;50.902;6.956;2023-10-08T10:44:09;21.40;;;7.93;;
16468;SDS011;8345;50.902;6.956;2023-10-08T10:46:38;16.90;;;8.13;;
16468;SDS011;8345;50.902;6.956;2023-10-08T10:49:08;17.63;;;7.47;;
16468;SDS011;8345;50.902;6.956;2023-10-08T10:51:43;12.57;;;7.03;;
16468;SDS011;8345;50.902;6.956;2023-10-08T10:54:11;16.90;;;7.53;;
16468;SDS011;8345;50.902;6.956;2023-10-08T10:56:45;13.37;;;6.87;;
16468;SDS011;8345;50.902;6.956;2023-10-08T10:59:12;14.73;;;7.77;;
16468;SDS011;8345;50.902;6.956;2023-10-08T11:01:44;16.00;;;8.90;;
16468;SDS011;8345;50.902;6.956;2023-10-08T11:04:18;18.13;;;8.70;;
16468;SDS011;8345;50.902;6.956;2023-10-08T11:06:53;13.80;;;7.77;;
16468;SDS011;8345;50.902;6.956;2023-10-08T11:09:23;14.47;;;7.90;;
16468;SDS011;8345;50.902;6.956;2023-10-08T11:12:01;17.53;;;8.63;;
16468;SDS011;8345;50.902;6.956;2023-10-08T11:14:36;14.07;;;8.53;;
16468;SDS011;8345;50.902;6.956;2023-10-08T11:17:09;14.23;;;7.97;;
16468;SDS011;8345;50.902;6.956;2023-10-08T11:19:37;13.77;;;8.80;;
16468;SDS011;8345;50.902;6.956;2023-10-08T11:22:07;19.80;;;9.30;;
16468;SDS011;8345;50.902;6.956;2023-10-08T11:24:41;16.47;;;10.00;;
16468;SDS011;8345;50.902;6.956;2023-10-08T11:27:12;20.27;;;9.43;;
16468;SDS011;8345;50.902;6.956;2023-10-08T11:29:43;14.43;;;8.77;;
16468;SDS011;8345;50.902;6.956;2023-10-08T11:32:11;20.60;;;12.43;;
16468;SDS011;8345;50.902;6.956;2023-10-08T11:34:42;18.40;;;11.23;;
16468;SDS011;8345;50.902;6.956;2023-10-08T11:37:10;18.43;;;10.63;;
16468;SDS011;8345;50.902;6.956;2023-10-08T11:39:46;18.13;;;12.40;;
16468;SDS011;8345;50.902;6.956;2023-10-08T11:42:14;17.17;;;12.40;;
16468;SDS011;8345;50.902;6.956;2023-10-08T11:45:09;20.23;;;13.87;;
16468;SDS011;8345;50.902;6.956;2023-10-08T11:47:49;21.40;;;13.67;;
16468;SDS011;8345;50.902;6.956;2023-10-08T11:50:23;21.13;;;13.13;;
16468;SDS011;8345;50.902;6.956;2023-10-08T11:52:57;19.47;;;12.80;;
16468;SDS011;8345;50.902;6.956;2023-10-08T11:55:27;17.60;;;12.23;;
16468;SDS011;8345;50.902;6.956;2023-10-08T11:57:55;22.17;;;12.83;;
16468;SDS011;8345;50.902;6.956;2023-10-08T12:00:22;19.57;;;12.40;;
16468;SDS011;8345;50.902;6.956;2023-10-08T12:02:51;21.30;;;12.57;;
16468;SDS011;8345;50.902;6.956;2023-10-08T12:05:20;18.30;;;12.70;;
16468;SDS011;8345;50.902;6.956;2023-10-08T12:07:51;21.97;;;13.60;;
16468;SDS011;8345;50.902;6.956;2023-10-08T12:10:23;21.93;;;13.50;;
16468;SDS011;8345;50.902;6.956;2023-10-08T12:12:50;20.83;;;13.37;;
16468;SDS011;8345;50.902;6.956;2023-10-08T12:15:18;20.27;;;12.40;;
16468;SDS011;8345;50.902;6.956;2023-10-08T12:17:49;20.30;;;14.00;;
16468;SDS011;8345;50.902;6.956;2023-10-08T12:20:43;19.00;;;12.77;;
16468;SDS011;8345;50.902;6.956;2023-10-08T12:23:11;18.00;;;12.27;;
16468;SDS011;8345;50.902;6.956;2023-10-08T12:25:49;20.57;;;11.80;;
16468;SDS011;8345;50.902;6.956;2023-10-08T12:28:17;18.60;;;12.17;;
16468;SDS011;8345;50.902;6.956;2023-10-08T12:30:45;18.37;;;12.33;;
16468;SDS011;8345;50.902;6.956;2023-10-08T12:33:14;20.93;;;12.57;;
16468;SDS011;8345;50.902;6.956;2023-10-08T12:35:43;18.93;;;12.23;;
16468;SDS011;8345;50.902;6.956;2023-10-08T12:38:11;16.83;;;11.40;;
16468;SDS011;8345;50.902;6.956;2023-10-08T12:40:39;16.27;;;12.03;;
16468;SDS011;8345;50.902;6.956;2023-10-08T12:43:17;24.37;;;13.20;;
16468;SDS011;8345;50.902;6.956;2023-10-08T12:45:48;19.50;;;12.60;;
16468;SDS011;8345;50.902;6.956;2023-10-08T12:48:19;20.17;;;12.90;;
16468;SDS011;8345;50.902;6.956;2023-10-08T12:50:47;21.20;;;13.03;;
16468;SDS011;8345;50.902;6.956;2023-10-08T12:53:21;20.77;;;12.83;;
16468;SDS011;8345;50.902;6.956;2023-10-08T12:55:52;17.83;;;12.53;;
16468;SDS011;8345;50.902;6.956;2023-10-08T12:58:20;15.23;;;11.80;;
16468;SDS011;8345;50.902;6.956;2023-10-08T13:00:50;16.83;;;12.27;;
16468;SDS011;8345;50.902;6.956;2023-10-08T13:03:22;16.23;;;11.80;;
16468;SDS011;8345;50.902;6.956;2023-10-08T13:05:51;16.03;;;12.10;;
16468;SDS011;8345;50.902;6.956;2023-10-08T13:08:19;17.97;;;11.93;;
16468;SDS011;8345;50.902;6.956;2023-10-08T13:10:46;16.90;;;11.63;;
16468;SDS011;8345;50.902;6.956;2023-10-08T13:13:13;17.30;;;11.73;;
16468;SDS011;8345;50.902;6.956;2023-10-08T13:15:40;17.20;;;10.83;;
16468;SDS011;8345;50.902;6.956;2023-10-08T13:18:08;15.97;;;11.00;;
16468;SDS011;8345;50.902;6.956;2023-10-08T13:20:35;22.50;;;12.60;;
16468;SDS011;8345;50.902;6.956;2023-10-08T13:23:07;17.50;;;11.03;;
16468;SDS011;8345;50.902;6.956;2023-10-08T13:25:34;15.73;;;11.37;;
16468;SDS011;8345;50.902;6.956;2023-10-08T13:28:04;15.07;;;10.77;;
16468;SDS011;8345;50.902;6.956;2023-10-08T13:30:35;17.63;;;10.50;;
16468;SDS011;8345;50.902;6.956;2023-10-08T13:33:02;16.87;;;11.27;;
16468;SDS011;8345;50.902;6.956;2023-10-08T13:35:29;18.10;;;11.37;;
16468;SDS011;8345;50.902;6.956;2023-10-08T13:37:58;20.90;;;10.93;;
16468;SDS011;8345;50.902;6.956;2023-10-08T13:40:32;15.90;;;11.43;;
16468;SDS011;8345;50.902;6.956;2023-10-08T13:43:04;16.97;;;10.40;;
16468;SDS011;8345;50.902;6.956;2023-10-08T13:45:31;21.83;;;11.70;;
16468;SDS011;8345;50.902;6.956;2023-10-08T13:48:02;18.27;;;10.90;;
16468;SDS011;8345;50.902;6.956;2023-10-08T13:50:30;18.40;;;12.37;;
16468;SDS011;8345;50.902;6.956;2023-10-08T13:52:57;21.20;;;12.20;;
16468;SDS011;8345;50.902;6.956;2023-10-08T13:55:24;17.87;;;11.10;;
16468;SDS011;8345;50.902;6.956;2023-10-08T13:57:53;19.37;;;11.50;;
16468;SDS011;8345;50.902;6.956;2023-10-08T14:00:22;19.07;;;11.43;;
16468;SDS011;8345;50.902;6.956;2023-10-08T14:02:51;15.43;;;10.67;;
16468;SDS011;8345;50.902;6.956;2023-10-08T14:05:19;19.13;;;11.53;;
16468;SDS011;8345;50.902;6.956;2023-10-08T14:07:49;18.53;;;11.87;;
16468;SDS011;8345;50.902;6.956;2023-10-08T14:10:18;15.43;;;10.97;;
16468;SDS011;8345;50.902;6.956;2023-10-08T14:12:45;17.07;;;10.90;;
16468;SDS011;8345;50.902;6.956;2023-10-08T14:15:16;15.53;;;11.47;;
16468;SDS011;8345;50.902;6.956;2023-10-08T14:17:44;16.13;;;10.77;;
16468;SDS011;8345;50.902;6.956;2023-10-08T14:20:13;16.10;;;10.77;;
16468;SDS011;8345;50.902;6.956;2023-10-08T14:22:47;16.73;;;10.37;;
16468;SDS011;8345;50.902;6.956;2023-10-08T14:25:22;22.43;;;11.73;;
16468;SDS011;8345;50.902;6.956;2023-10-08T14:27:50;17.80;;;10.60;;
16468;SDS011;8345;50.902;6.956;2023-10-08T14:30:19;18.00;;;10.37;;
16468;SDS011;8345;50.902;6.956;2023-10-08T14:32:49;17.83;;;10.47;;
16468;SDS011;8345;50.902;6.956;2023-10-08T14:35:16;18.90;;;10.63;;
16468;SDS011;8345;50.902;6.956;2023-10-08T14:38:01;15.63;;;10.63;;
16468;SDS011;8345;50.902;6.956;2023-10-08T14:40:46;16.30;;;10.43;;
16468;SDS011;8345;50.902;6.956;2023-10-08T14:43:31;14.10;;;10.63;;
16468;SDS011;8345;50.902;6.956;2023-10-08T14:46:01;16.20;;;10.73;;
16468;SDS011;8345;50.902;6.956;2023-10-08T14:48:29;14.93;;;10.63;;
16468;SDS011;8345;50.902;6.956;2023-10-08T14:51:00;17.43;;;11.43;;
16468;SDS011;8345;50.902;6.956;2023-10-08T14:53:27;15.67;;;10.03;;
16468;SDS011;8345;50.902;6.956;2023-10-08T14:55:55;14.67;;;10.40;;
16468;SDS011;8345;50.902;6.956;2023-10-08T14:58:22;19.70;;;10.70;;
16468;SDS011;8345;50.902;6.956;2023-10-08T15:00:50;18.70;;;11.00;;
16468;SDS011;8345;50.902;6.956;2023-10-08T15:03:20;16.33;;;11.13;;
16468;SDS011;8345;50.902;6.956;2023-10-08T15:05:47;15.13;;;11.03;;
16468;SDS011;8345;50.902;6.956;2023-10-08T15:08:16;20.87;;;11.13;;
16468;SDS011;8345;50.902;6.956;2023-10-08T15:10:43;18.87;;;11.47;;
16468;SDS011;8345;50.902;6.956;2023-10-08T15:13:12;20.87;;;11.80;;
16468;SDS011;8345;50.902;6.956;2023-10-08T15:15:40;16.50;;;11.77;;
16468;SDS011;8345;50.902;6.956;2023-10-08T15:18:08;18.73;;;11.50;;
16468;SDS011;8345;50.902;6.956;2023-10-08T15:20:38;19.43;;;11.00;;